sensor_id;sensor_type;location;lat;lon;timestamp;temperature;humidity
4596;DHT22;2310;49.978;8.742;2022-08-01T00:03:25;25.50;99.90
4596;DHT22;2310;49.978;8.742;2022-08-01T00:07:27;25.50;99.90
4596;DHT22;2310;49.978;8.742;2022-08-01T00:11:28;25.50;99.90
4596;DHT22;2310;49.978;8.742;2022-08-01T00:15:29;25.30;99.90
4596;DHT22;2310;49.978;8.742;2022-08-01T00:19:30;25.30;99.90
4596;DHT22;2310;49.978;8.742;2022-08-01T00:23:32;25.30;99.90
4596;DHT22;2310;49.978;8.742;2022-08-01T00:27:33;25.20;99.90
4596;DHT22;2310;49.978;8.742;2022-08-01T00:31:36;25.20;99.90
4596;DHT22;2310;49.978;8.742;2022-08-01T00:35:37;25.20;99.90
4596;DHT22;2310;49.978;8.742;2022-08-01T00:39:38;25.10;99.90
4596;DHT22;2310;49.978;8.742;2022-08-01T00:43:40;25.10;99.90
4596;DHT22;2310;49.978;8.742;2022-08-01T00:47:41;25.00;99.90
4596;DHT22;2310;49.978;8.742;2022-08-01T00:51:42;25.00;99.90
4596;DHT22;2310;49.978;8.742;2022-08-01T00:55:44;24.90;99.90
4596;DHT22;2310;49.978;8.742;2022-08-01T00:59:45;24.70;99.90
4596;DHT22;2310;49.978;8.742;2022-08-01T01:03:50;24.40;99.90
4596;DHT22;2310;49.978;8.742;2022-08-01T01:08:07;24.40;99.90
4596;DHT22;2310;49.978;8.742;2022-08-01T01:12:22;24.40;99.90
4596;DHT22;2310;49.978;8.742;2022-08-01T01:16:25;24.30;99.90
4596;DHT22;2310;49.978;8.742;2022-08-01T01:20:33;24.10;99.90
4596;DHT22;2310;49.978;8.742;2022-08-01T01:29:08;24.10;99.90
4596;DHT22;2310;49.978;8.742;2022-08-01T01:33:10;24.00;99.90
4596;DHT22;2310;49.978;8.742;2022-08-01T01:37:16;24.00;99.90
4596;DHT22;2310;49.978;8.742;2022-08-01T01:41:18;24.10;99.90
4596;DHT22;2310;49.978;8.742;2022-08-01T01:45:21;24.10;99.90
4596;DHT22;2310;49.978;8.742;2022-08-01T01:49:26;24.00;99.90
4596;DHT22;2310;49.978;8.742;2022-08-01T01:53:28;24.00;99.90
4596;DHT22;2310;49.978;8.742;2022-08-01T01:57:32;23.90;99.90
4596;DHT22;2310;49.978;8.742;2022-08-01T02:01:34;23.90;99.90
4596;DHT22;2310;49.978;8.742;2022-08-01T02:05:39;23.80;99.90
4596;DHT22;2310;49.978;8.742;2022-08-01T02:09:43;23.80;99.90
4596;DHT22;2310;49.978;8.742;2022-08-01T02:13:59;23.80;99.90
4596;DHT22;2310;49.978;8.742;2022-08-01T02:17:57;23.70;99.90
4596;DHT22;2310;49.978;8.742;2022-08-01T02:26:33;23.50;99.90
4596;DHT22;2310;49.978;8.742;2022-08-01T02:30:38;23.50;99.90
4596;DHT22;2310;49.978;8.742;2022-08-01T02:34:41;23.50;99.90
4596;DHT22;2310;49.978;8.742;2022-08-01T02:38:44;23.40;99.90
4596;DHT22;2310;49.978;8.742;2022-08-01T02:42:49;23.20;99.90
4596;DHT22;2310;49.978;8.742;2022-08-01T02:46:54;23.30;99.90
4596;DHT22;2310;49.978;8.742;2022-08-01T02:50:58;23.20;99.90
4596;DHT22;2310;49.978;8.742;2022-08-01T02:55:01;23.40;99.90
4596;DHT22;2310;49.978;8.742;2022-08-01T02:59:06;23.50;99.90
4596;DHT22;2310;49.978;8.742;2022-08-01T03:03:09;23.60;99.90
4596;DHT22;2310;49.978;8.742;2022-08-01T03:07:11;23.50;99.90
4596;DHT22;2310;49.978;8.742;2022-08-01T03:11:14;23.30;99.90
4596;DHT22;2310;49.978;8.742;2022-08-01T03:15:16;23.10;99.90
4596;DHT22;2310;49.978;8.742;2022-08-01T03:19:20;23.00;99.90
4596;DHT22;2310;49.978;8.742;2022-08-01T03:23:23;23.00;99.90
4596;DHT22;2310;49.978;8.742;2022-08-01T03:27:27;22.80;99.90
4596;DHT22;2310;49.978;8.742;2022-08-01T03:31:29;22.70;99.90
4596;DHT22;2310;49.978;8.742;2022-08-01T03:35:33;22.70;99.90
4596;DHT22;2310;49.978;8.742;2022-08-01T03:39:39;22.70;99.90
4596;DHT22;2310;49.978;8.742;2022-08-01T03:43:46;22.70;99.90
4596;DHT22;2310;49.978;8.742;2022-08-01T03:47:51;22.50;99.90
4596;DHT22;2310;49.978;8.742;2022-08-01T03:51:53;22.50;99.90
4596;DHT22;2310;49.978;8.742;2022-08-01T03:55:58;22.40;99.90
4596;DHT22;2310;49.978;8.742;2022-08-01T04:00:02;22.40;99.90
4596;DHT22;2310;49.978;8.742;2022-08-01T04:04:06;22.50;99.90
4596;DHT22;2310;49.978;8.742;2022-08-01T04:08:07;22.50;99.90
4596;DHT22;2310;49.978;8.742;2022-08-01T04:12:09;22.40;99.90
4596;DHT22;2310;49.978;8.742;2022-08-01T04:16:12;22.40;99.90
4596;DHT22;2310;49.978;8.742;2022-08-01T04:20:14;22.40;99.90
4596;DHT22;2310;49.978;8.742;2022-08-01T04:24:18;22.30;99.90
4596;DHT22;2310;49.978;8.742;2022-08-01T04:28:22;22.40;99.90
4596;DHT22;2310;49.978;8.742;2022-08-01T04:32:25;22.40;99.90
4596;DHT22;2310;49.978;8.742;2022-08-01T04:36:28;22.50;99.90
4596;DHT22;2310;49.978;8.742;2022-08-01T04:40:30;22.60;99.90
4596;DHT22;2310;49.978;8.742;2022-08-01T04:44:33;22.60;99.90
4596;DHT22;2310;49.978;8.742;2022-08-01T04:48:36;22.60;99.90
4596;DHT22;2310;49.978;8.742;2022-08-01T04:52:38;22.70;99.90
4596;DHT22;2310;49.978;8.742;2022-08-01T04:56:41;22.60;99.90
4596;DHT22;2310;49.978;8.742;2022-08-01T05:00:43;22.70;99.90
4596;DHT22;2310;49.978;8.742;2022-08-01T05:04:45;22.60;99.90
4596;DHT22;2310;49.978;8.742;2022-08-01T05:08:47;22.20;99.90
4596;DHT22;2310;49.978;8.742;2022-08-01T05:12:48;22.40;99.90
4596;DHT22;2310;49.978;8.742;2022-08-01T05:16:49;22.50;99.90
4596;DHT22;2310;49.978;8.742;2022-08-01T05:20:50;22.60;99.90
4596;DHT22;2310;49.978;8.742;2022-08-01T05:24:52;22.70;99.90
4596;DHT22;2310;49.978;8.742;2022-08-01T05:28:54;22.90;99.90
4596;DHT22;2310;49.978;8.742;2022-08-01T05:32:56;23.10;99.90
4596;DHT22;2310;49.978;8.742;2022-08-01T05:36:58;23.80;99.90
4596;DHT22;2310;49.978;8.742;2022-08-01T05:40:59;24.30;99.90
4596;DHT22;2310;49.978;8.742;2022-08-01T05:45:00;24.50;99.90
4596;DHT22;2310;49.978;8.742;2022-08-01T05:49:03;24.50;99.90
4596;DHT22;2310;49.978;8.742;2022-08-01T05:53:05;24.50;99.90
4596;DHT22;2310;49.978;8.742;2022-08-01T05:57:06;24.50;99.90
4596;DHT22;2310;49.978;8.742;2022-08-01T06:01:07;24.80;99.90
4596;DHT22;2310;49.978;8.742;2022-08-01T06:05:09;25.10;99.90
4596;DHT22;2310;49.978;8.742;2022-08-01T06:09:13;25.20;99.90
4596;DHT22;2310;49.978;8.742;2022-08-01T06:13:14;25.50;99.90
4596;DHT22;2310;49.978;8.742;2022-08-01T06:17:15;25.40;99.90
4596;DHT22;2310;49.978;8.742;2022-08-01T06:21:17;25.20;99.90
4596;DHT22;2310;49.978;8.742;2022-08-01T06:25:19;25.10;99.90
4596;DHT22;2310;49.978;8.742;2022-08-01T06:29:22;25.10;99.90
4596;DHT22;2310;49.978;8.742;2022-08-01T06:33:23;25.00;99.90
4596;DHT22;2310;49.978;8.742;2022-08-01T06:37:30;24.90;99.90
4596;DHT22;2310;49.978;8.742;2022-08-01T06:41:31;24.80;99.90
4596;DHT22;2310;49.978;8.742;2022-08-01T06:45:33;24.90;99.90
4596;DHT22;2310;49.978;8.742;2022-08-01T06:49:34;24.90;99.90
4596;DHT22;2310;49.978;8.742;2022-08-01T06:53:36;25.00;99.90
4596;DHT22;2310;49.978;8.742;2022-08-01T06:57:46;25.00;99.90
4596;DHT22;2310;49.978;8.742;2022-08-01T07:01:47;24.90;99.90
4596;DHT22;2310;49.978;8.742;2022-08-01T07:05:49;25.20;99.90
4596;DHT22;2310;49.978;8.742;2022-08-01T07:09:50;25.50;99.90
4596;DHT22;2310;49.978;8.742;2022-08-01T07:13:53;25.60;99.90
4596;DHT22;2310;49.978;8.742;2022-08-01T07:17:54;25.60;99.90
4596;DHT22;2310;49.978;8.742;2022-08-01T07:21:55;25.90;99.90
4596;DHT22;2310;49.978;8.742;2022-08-01T07:25:58;25.90;99.90
4596;DHT22;2310;49.978;8.742;2022-08-01T07:30:02;26.00;99.90
4596;DHT22;2310;49.978;8.742;2022-08-01T07:34:04;26.30;99.90
4596;DHT22;2310;49.978;8.742;2022-08-01T07:38:08;26.40;99.90
4596;DHT22;2310;49.978;8.742;2022-08-01T07:42:11;26.60;99.90
4596;DHT22;2310;49.978;8.742;2022-08-01T07:46:13;26.90;99.90
4596;DHT22;2310;49.978;8.742;2022-08-01T07:50:15;26.70;99.90
4596;DHT22;2310;49.978;8.742;2022-08-01T07:54:17;26.60;99.90
4596;DHT22;2310;49.978;8.742;2022-08-01T07:58:18;26.80;99.90
4596;DHT22;2310;49.978;8.742;2022-08-01T08:02:19;27.00;99.90
4596;DHT22;2310;49.978;8.742;2022-08-01T08:06:20;27.40;99.90
4596;DHT22;2310;49.978;8.742;2022-08-01T08:10:22;27.60;99.90
4596;DHT22;2310;49.978;8.742;2022-08-01T08:14:24;27.40;99.90
4596;DHT22;2310;49.978;8.742;2022-08-01T08:18:27;27.60;99.90
4596;DHT22;2310;49.978;8.742;2022-08-01T08:22:28;27.90;99.90
4596;DHT22;2310;49.978;8.742;2022-08-01T08:26:29;27.60;99.90
4596;DHT22;2310;49.978;8.742;2022-08-01T08:30:31;27.20;99.90
4596;DHT22;2310;49.978;8.742;2022-08-01T08:34:32;27.70;99.90
4596;DHT22;2310;49.978;8.742;2022-08-01T08:38:34;27.40;99.90
4596;DHT22;2310;49.978;8.742;2022-08-01T08:42:36;27.10;99.90
4596;DHT22;2310;49.978;8.742;2022-08-01T08:46:41;27.80;99.90
4596;DHT22;2310;49.978;8.742;2022-08-01T08:50:44;27.70;99.90
4596;DHT22;2310;49.978;8.742;2022-08-01T08:54:47;27.30;99.90
4596;DHT22;2310;49.978;8.742;2022-08-01T08:58:50;27.70;99.90
4596;DHT22;2310;49.978;8.742;2022-08-01T09:02:52;27.80;99.90
4596;DHT22;2310;49.978;8.742;2022-08-01T09:06:55;27.60;99.90
4596;DHT22;2310;49.978;8.742;2022-08-01T09:10:56;27.90;99.90
4596;DHT22;2310;49.978;8.742;2022-08-01T09:14:58;28.20;99.90
4596;DHT22;2310;49.978;8.742;2022-08-01T09:19:13;28.40;98.20
4596;DHT22;2310;49.978;8.742;2022-08-01T09:23:31;28.70;98.40
4596;DHT22;2310;49.978;8.742;2022-08-01T09:27:34;29.00;95.70
4596;DHT22;2310;49.978;8.742;2022-08-01T09:31:41;28.30;96.90
4596;DHT22;2310;49.978;8.742;2022-08-01T09:35:53;28.20;97.10
4596;DHT22;2310;49.978;8.742;2022-08-01T09:39:54;29.00;97.10
4596;DHT22;2310;49.978;8.742;2022-08-01T09:43:54;29.40;92.70
4596;DHT22;2310;49.978;8.742;2022-08-01T09:47:56;29.80;93.70
4596;DHT22;2310;49.978;8.742;2022-08-01T09:51:58;30.30;87.90
4596;DHT22;2310;49.978;8.742;2022-08-01T09:56:09;30.50;88.80
4596;DHT22;2310;49.978;8.742;2022-08-01T10:00:16;29.90;85.10
4596;DHT22;2310;49.978;8.742;2022-08-01T10:04:20;29.10;89.30
4596;DHT22;2310;49.978;8.742;2022-08-01T10:08:23;28.90;90.40
4596;DHT22;2310;49.978;8.742;2022-08-01T10:12:27;28.60;91.80
4596;DHT22;2310;49.978;8.742;2022-08-01T10:16:30;28.40;93.60
4596;DHT22;2310;49.978;8.742;2022-08-01T10:20:33;28.20;95.40
4596;DHT22;2310;49.978;8.742;2022-08-01T10:24:37;28.40;94.30
4596;DHT22;2310;49.978;8.742;2022-08-01T10:28:40;28.50;94.80
4596;DHT22;2310;49.978;8.742;2022-08-01T10:32:46;29.10;93.20
4596;DHT22;2310;49.978;8.742;2022-08-01T10:36:50;29.90;91.40
4596;DHT22;2310;49.978;8.742;2022-08-01T10:40:51;30.10;88.10
4596;DHT22;2310;49.978;8.742;2022-08-01T10:44:55;31.10;84.70
4596;DHT22;2310;49.978;8.742;2022-08-01T10:49:03;31.90;76.90
4596;DHT22;2310;49.978;8.742;2022-08-01T10:53:19;32.20;70.80
4596;DHT22;2310;49.978;8.742;2022-08-01T10:57:22;32.30;71.10
4596;DHT22;2310;49.978;8.742;2022-08-01T11:01:30;31.80;72.00
4596;DHT22;2310;49.978;8.742;2022-08-01T11:05:34;32.10;69.60
4596;DHT22;2310;49.978;8.742;2022-08-01T11:09:42;33.00;66.90
4596;DHT22;2310;49.978;8.742;2022-08-01T11:18:46;33.00;63.00
4596;DHT22;2310;49.978;8.742;2022-08-01T11:22:12;33.70;61.70
4596;DHT22;2310;49.978;8.742;2022-08-01T11:26:15;32.60;61.90
4596;DHT22;2310;49.978;8.742;2022-08-01T11:30:23;33.30;60.60
4596;DHT22;2310;49.978;8.742;2022-08-01T11:34:53;33.30;59.40
4596;DHT22;2310;49.978;8.742;2022-08-01T11:47:18;33.00;60.00
4596;DHT22;2310;49.978;8.742;2022-08-01T11:51:24;33.20;59.30
4596;DHT22;2310;49.978;8.742;2022-08-01T11:55:28;33.70;58.70
4596;DHT22;2310;49.978;8.742;2022-08-01T11:59:37;33.60;57.80
4596;DHT22;2310;49.978;8.742;2022-08-01T12:03:40;33.50;57.10
4596;DHT22;2310;49.978;8.742;2022-08-01T12:07:44;34.10;56.90
4596;DHT22;2310;49.978;8.742;2022-08-01T12:11:47;33.90;55.00
4596;DHT22;2310;49.978;8.742;2022-08-01T12:15:48;33.60;56.10
4596;DHT22;2310;49.978;8.742;2022-08-01T12:19:53;33.50;56.20
4596;DHT22;2310;49.978;8.742;2022-08-01T12:24:02;33.20;56.40
4596;DHT22;2310;49.978;8.742;2022-08-01T12:28:05;33.10;56.80
4596;DHT22;2310;49.978;8.742;2022-08-01T12:32:20;32.70;57.40
4596;DHT22;2310;49.978;8.742;2022-08-01T12:36:28;32.20;58.30
4596;DHT22;2310;49.978;8.742;2022-08-01T12:40:31;32.60;58.70
4596;DHT22;2310;49.978;8.742;2022-08-01T12:44:33;32.50;57.70
4596;DHT22;2310;49.978;8.742;2022-08-01T12:48:35;32.40;57.50
4596;DHT22;2310;49.978;8.742;2022-08-01T12:52:37;32.40;57.20
4596;DHT22;2310;49.978;8.742;2022-08-01T12:56:39;31.90;58.20
4596;DHT22;2310;49.978;8.742;2022-08-01T13:00:42;32.20;58.00
4596;DHT22;2310;49.978;8.742;2022-08-01T13:04:51;32.30;57.10
4596;DHT22;2310;49.978;8.742;2022-08-01T13:08:52;31.90;58.00
4596;DHT22;2310;49.978;8.742;2022-08-01T13:12:56;32.50;57.40
4596;DHT22;2310;49.978;8.742;2022-08-01T13:16:58;32.40;56.70
4596;DHT22;2310;49.978;8.742;2022-08-01T13:21:16;32.10;57.00
4596;DHT22;2310;49.978;8.742;2022-08-01T13:25:18;32.10;57.00
4596;DHT22;2310;49.978;8.742;2022-08-01T13:29:34;32.20;57.20
4596;DHT22;2310;49.978;8.742;2022-08-01T13:33:46;31.80;58.00
4596;DHT22;2310;49.978;8.742;2022-08-01T13:37:49;31.60;58.10
4596;DHT22;2310;49.978;8.742;2022-08-01T13:41:52;31.60;58.10
4596;DHT22;2310;49.978;8.742;2022-08-01T13:45:53;31.50;58.60
4596;DHT22;2310;49.978;8.742;2022-08-01T13:49:54;32.00;57.60
4596;DHT22;2310;49.978;8.742;2022-08-01T13:53:56;32.10;56.30
4596;DHT22;2310;49.978;8.742;2022-08-01T13:57:57;31.90;56.90
4596;DHT22;2310;49.978;8.742;2022-08-01T14:01:59;32.30;56.80
4596;DHT22;2310;49.978;8.742;2022-08-01T14:06:01;32.50;56.00
4596;DHT22;2310;49.978;8.742;2022-08-01T14:10:02;32.40;55.40
4596;DHT22;2310;49.978;8.742;2022-08-01T14:14:05;32.30;56.00
4596;DHT22;2310;49.978;8.742;2022-08-01T14:18:09;32.20;55.80
4596;DHT22;2310;49.978;8.742;2022-08-01T14:22:11;32.40;56.20
4596;DHT22;2310;49.978;8.742;2022-08-01T14:26:12;32.70;54.60
4596;DHT22;2310;49.978;8.742;2022-08-01T14:30:14;32.40;53.80
4596;DHT22;2310;49.978;8.742;2022-08-01T14:34:15;32.60;54.40
4596;DHT22;2310;49.978;8.742;2022-08-01T14:38:17;32.30;53.80
4596;DHT22;2310;49.978;8.742;2022-08-01T14:42:20;31.70;54.60
4596;DHT22;2310;49.978;8.742;2022-08-01T14:46:21;31.30;56.00
4596;DHT22;2310;49.978;8.742;2022-08-01T14:50:23;31.00;55.70
4596;DHT22;2310;49.978;8.742;2022-08-01T14:54:24;30.80;55.80
4596;DHT22;2310;49.978;8.742;2022-08-01T14:58:28;31.00;56.20
4596;DHT22;2310;49.978;8.742;2022-08-01T15:02:29;30.80;56.90
4596;DHT22;2310;49.978;8.742;2022-08-01T15:06:30;30.20;59.10
4596;DHT22;2310;49.978;8.742;2022-08-01T15:10:32;30.10;60.20
4596;DHT22;2310;49.978;8.742;2022-08-01T15:14:34;30.30;59.60
4596;DHT22;2310;49.978;8.742;2022-08-01T15:18:50;30.20;59.60
4596;DHT22;2310;49.978;8.742;2022-08-01T15:22:51;29.80;59.70
4596;DHT22;2310;49.978;8.742;2022-08-01T15:26:53;29.60;60.00
4596;DHT22;2310;49.978;8.742;2022-08-01T15:30:54;29.50;60.60
4596;DHT22;2310;49.978;8.742;2022-08-01T15:34:56;29.50;60.70
4596;DHT22;2310;49.978;8.742;2022-08-01T15:38:57;29.50;60.90
4596;DHT22;2310;49.978;8.742;2022-08-01T15:42:58;29.60;60.00
4596;DHT22;2310;49.978;8.742;2022-08-01T15:47:01;29.60;59.90
4596;DHT22;2310;49.978;8.742;2022-08-01T15:51:02;29.60;59.80
4596;DHT22;2310;49.978;8.742;2022-08-01T15:55:04;29.50;60.00
4596;DHT22;2310;49.978;8.742;2022-08-01T15:59:06;29.30;63.10
4596;DHT22;2310;49.978;8.742;2022-08-01T16:03:07;29.10;67.10
4596;DHT22;2310;49.978;8.742;2022-08-01T16:07:10;28.80;69.40
4596;DHT22;2310;49.978;8.742;2022-08-01T16:11:12;29.10;70.20
4596;DHT22;2310;49.978;8.742;2022-08-01T16:15:13;28.90;72.80
4596;DHT22;2310;49.978;8.742;2022-08-01T16:19:14;28.10;84.00
4596;DHT22;2310;49.978;8.742;2022-08-01T16:23:17;27.60;91.30
4596;DHT22;2310;49.978;8.742;2022-08-01T16:27:19;27.20;98.30
4596;DHT22;2310;49.978;8.742;2022-08-01T16:31:23;27.00;99.90
4596;DHT22;2310;49.978;8.742;2022-08-01T16:35:26;27.30;99.90
4596;DHT22;2310;49.978;8.742;2022-08-01T16:39:29;27.10;99.90
4596;DHT22;2310;49.978;8.742;2022-08-01T16:43:32;27.50;99.90
4596;DHT22;2310;49.978;8.742;2022-08-01T16:47:33;27.60;99.90
4596;DHT22;2310;49.978;8.742;2022-08-01T16:51:34;27.80;99.90
4596;DHT22;2310;49.978;8.742;2022-08-01T16:55:37;28.30;97.40
4596;DHT22;2310;49.978;8.742;2022-08-01T16:59:40;28.20;96.40
4596;DHT22;2310;49.978;8.742;2022-08-01T17:03:43;28.80;95.00
4596;DHT22;2310;49.978;8.742;2022-08-01T17:07:46;29.10;91.90
4596;DHT22;2310;49.978;8.742;2022-08-01T17:11:47;29.30;90.30
4596;DHT22;2310;49.978;8.742;2022-08-01T17:15:49;29.30;86.10
4596;DHT22;2310;49.978;8.742;2022-08-01T17:19:52;29.10;86.70
4596;DHT22;2310;49.978;8.742;2022-08-01T17:23:53;29.00;87.10
4596;DHT22;2310;49.978;8.742;2022-08-01T17:27:55;29.00;89.00
4596;DHT22;2310;49.978;8.742;2022-08-01T17:31:56;29.10;87.30
4596;DHT22;2310;49.978;8.742;2022-08-01T17:35:58;29.00;87.10
4596;DHT22;2310;49.978;8.742;2022-08-01T17:39:59;28.80;88.70
4596;DHT22;2310;49.978;8.742;2022-08-01T17:44:02;28.60;90.20
4596;DHT22;2310;49.978;8.742;2022-08-01T17:48:04;28.80;90.70
4596;DHT22;2310;49.978;8.742;2022-08-01T17:52:05;28.80;90.50
4596;DHT22;2310;49.978;8.742;2022-08-01T17:56:06;28.70;90.30
4596;DHT22;2310;49.978;8.742;2022-08-01T18:00:09;28.80;90.40
4596;DHT22;2310;49.978;8.742;2022-08-01T18:04:10;29.00;90.60
4596;DHT22;2310;49.978;8.742;2022-08-01T18:08:13;29.00;90.50
4596;DHT22;2310;49.978;8.742;2022-08-01T18:12:15;29.10;90.10
4596;DHT22;2310;49.978;8.742;2022-08-01T18:16:18;29.10;89.80
4596;DHT22;2310;49.978;8.742;2022-08-01T18:20:19;29.10;87.70
4596;DHT22;2310;49.978;8.742;2022-08-01T18:24:22;29.10;86.20
4596;DHT22;2310;49.978;8.742;2022-08-01T18:28:24;28.90;86.60
4596;DHT22;2310;49.978;8.742;2022-08-01T18:32:28;28.80;86.80
4596;DHT22;2310;49.978;8.742;2022-08-01T18:36:30;28.70;87.70
4596;DHT22;2310;49.978;8.742;2022-08-01T18:40:33;28.50;88.30
4596;DHT22;2310;49.978;8.742;2022-08-01T18:44:34;28.50;89.30
4596;DHT22;2310;49.978;8.742;2022-08-01T18:48:36;28.50;89.80
4596;DHT22;2310;49.978;8.742;2022-08-01T18:52:38;28.50;90.10
4596;DHT22;2310;49.978;8.742;2022-08-01T18:56:40;28.40;90.60
4596;DHT22;2310;49.978;8.742;2022-08-01T19:00:42;28.40;91.20
4596;DHT22;2310;49.978;8.742;2022-08-01T19:04:43;28.20;91.70
4596;DHT22;2310;49.978;8.742;2022-08-01T19:08:44;28.00;92.40
4596;DHT22;2310;49.978;8.742;2022-08-01T19:12:46;27.90;93.00
4596;DHT22;2310;49.978;8.742;2022-08-01T19:16:47;27.90;93.10
4596;DHT22;2310;49.978;8.742;2022-08-01T19:20:48;28.00;93.30
4596;DHT22;2310;49.978;8.742;2022-08-01T19:24:49;27.80;91.90
4596;DHT22;2310;49.978;8.742;2022-08-01T19:28:54;27.70;93.40
4596;DHT22;2310;49.978;8.742;2022-08-01T19:32:55;27.50;93.00
4596;DHT22;2310;49.978;8.742;2022-08-01T19:36:56;27.40;92.70
4596;DHT22;2310;49.978;8.742;2022-08-01T19:40:58;27.50;92.90
4596;DHT22;2310;49.978;8.742;2022-08-01T19:45:01;27.50;92.70
4596;DHT22;2310;49.978;8.742;2022-08-01T19:49:04;27.60;92.60
4596;DHT22;2310;49.978;8.742;2022-08-01T19:53:06;27.50;92.40
4596;DHT22;2310;49.978;8.742;2022-08-01T19:57:12;27.30;92.10
4596;DHT22;2310;49.978;8.742;2022-08-01T20:01:13;27.20;92.20
4596;DHT22;2310;49.978;8.742;2022-08-01T20:05:15;27.30;91.70
4596;DHT22;2310;49.978;8.742;2022-08-01T20:09:16;27.10;92.60
4596;DHT22;2310;49.978;8.742;2022-08-01T20:13:18;26.90;92.00
4596;DHT22;2310;49.978;8.742;2022-08-01T20:17:20;26.90;92.00
4596;DHT22;2310;49.978;8.742;2022-08-01T20:21:24;26.90;91.50
4596;DHT22;2310;49.978;8.742;2022-08-01T20:25:27;26.80;91.70
4596;DHT22;2310;49.978;8.742;2022-08-01T20:29:31;26.80;92.10
4596;DHT22;2310;49.978;8.742;2022-08-01T20:33:34;26.80;91.40
4596;DHT22;2310;49.978;8.742;2022-08-01T20:37:38;27.10;91.40
4596;DHT22;2310;49.978;8.742;2022-08-01T20:41:42;26.90;90.90
4596;DHT22;2310;49.978;8.742;2022-08-01T20:45:45;27.00;90.90
4596;DHT22;2310;49.978;8.742;2022-08-01T20:49:47;26.90;90.70
4596;DHT22;2310;49.978;8.742;2022-08-01T20:53:49;26.90;90.50
4596;DHT22;2310;49.978;8.742;2022-08-01T20:57:53;26.70;91.00
4596;DHT22;2310;49.978;8.742;2022-08-01T21:02:23;26.40;92.10
4596;DHT22;2310;49.978;8.742;2022-08-01T21:06:22;26.40;92.90
4596;DHT22;2310;49.978;8.742;2022-08-01T21:10:26;26.30;94.30
4596;DHT22;2310;49.978;8.742;2022-08-01T21:14:36;26.00;96.60
4596;DHT22;2310;49.978;8.742;2022-08-01T21:18:38;25.80;99.70
4596;DHT22;2310;49.978;8.742;2022-08-01T21:23:10;25.60;99.90
4596;DHT22;2310;49.978;8.742;2022-08-01T21:27:14;25.50;99.90
4596;DHT22;2310;49.978;8.742;2022-08-01T21:31:20;25.50;99.90
4596;DHT22;2310;49.978;8.742;2022-08-01T21:35:24;25.50;99.90
4596;DHT22;2310;49.978;8.742;2022-08-01T21:39:26;25.50;99.90
4596;DHT22;2310;49.978;8.742;2022-08-01T21:43:30;25.30;99.90
4596;DHT22;2310;49.978;8.742;2022-08-01T21:47:32;25.20;99.90
4596;DHT22;2310;49.978;8.742;2022-08-01T21:51:45;25.10;99.90
4596;DHT22;2310;49.978;8.742;2022-08-01T21:56:06;24.90;99.90
4596;DHT22;2310;49.978;8.742;2022-08-01T22:00:15;24.90;99.90
4596;DHT22;2310;49.978;8.742;2022-08-01T22:04:30;24.80;99.90
4596;DHT22;2310;49.978;8.742;2022-08-01T22:08:34;24.80;99.90
4596;DHT22;2310;49.978;8.742;2022-08-01T22:12:35;24.40;99.90
4596;DHT22;2310;49.978;8.742;2022-08-01T22:16:37;24.40;99.90
4596;DHT22;2310;49.978;8.742;2022-08-01T22:20:41;24.40;99.90
4596;DHT22;2310;49.978;8.742;2022-08-01T22:24:44;24.40;99.90
4596;DHT22;2310;49.978;8.742;2022-08-01T22:28:45;24.10;99.90
4596;DHT22;2310;49.978;8.742;2022-08-01T22:32:48;24.20;99.90
4596;DHT22;2310;49.978;8.742;2022-08-01T22:36:52;24.10;99.90
4596;DHT22;2310;49.978;8.742;2022-08-01T22:41:03;24.00;99.90
4596;DHT22;2310;49.978;8.742;2022-08-01T22:54:02;23.70;99.90
4596;DHT22;2310;49.978;8.742;2022-08-01T22:57:58;23.70;99.90
4596;DHT22;2310;49.978;8.742;2022-08-01T23:02:02;23.70;99.90
4596;DHT22;2310;49.978;8.742;2022-08-01T23:06:13;23.60;99.90
4596;DHT22;2310;49.978;8.742;2022-08-01T23:10:14;23.70;99.90
4596;DHT22;2310;49.978;8.742;2022-08-01T23:14:16;23.70;99.90
4596;DHT22;2310;49.978;8.742;2022-08-01T23:18:20;23.90;99.90
4596;DHT22;2310;49.978;8.742;2022-08-01T23:22:22;24.10;99.90
4596;DHT22;2310;49.978;8.742;2022-08-01T23:26:25;24.00;99.90
4596;DHT22;2310;49.978;8.742;2022-08-01T23:30:30;24.00;99.90
4596;DHT22;2310;49.978;8.742;2022-08-01T23:34:31;24.00;99.90
4596;DHT22;2310;49.978;8.742;2022-08-01T23:38:33;24.00;99.90
4596;DHT22;2310;49.978;8.742;2022-08-01T23:42:34;24.10;99.90
4596;DHT22;2310;49.978;8.742;2022-08-01T23:46:36;24.10;99.90
4596;DHT22;2310;49.978;8.742;2022-08-01T23:50:38;24.00;99.90
4596;DHT22;2310;49.978;8.742;2022-08-01T23:54:39;23.80;99.90
4596;DHT22;2310;49.978;8.742;2022-08-01T23:58:41;23.70;99.90
